Time;durP1;ratioP1;P1;durP2;ratioP2;P2;SDS_P1;SDS_P2;PMS_P1;PMS_P2;Temp;Humidity;BMP_temperature;BMP_pressure;BME280_temperature;BME280_humidity;BME280_pressure;Samples;Min_cycle;Max_cycle;Signal;HPM_P1;HPM_P2
2022/08/06 00:02:42;;;;;;;3.63;2.10;;;14.90;99.90;;;;;;4994836;28;20436;-73
2022/08/06 00:05:11;;;;;;;3.50;2.10;;;14.90;99.90;;;;;;4994129;28;20803;-73
2022/08/06 00:07:50;;;;;;;2.80;2.40;;;14.80;99.90;;;;;;4994074;28;20424;-73
2022/08/06 00:10:20;;;;;;;4.03;2.80;;;14.80;99.90;;;;;;4978264;28;20453;-74
2022/08/06 00:12:58;;;;;;;2.80;2.13;;;14.80;99.90;;;;;;5000360;28;20399;-74
2022/08/06 00:15:27;;;;;;;2.80;2.03;;;14.70;99.90;;;;;;4979793;28;20489;-74
2022/08/06 00:18:17;;;;;;;3.60;2.00;;;14.70;99.90;;;;;;4977821;28;20424;-74
2022/08/06 00:20:45;;;;;;;3.90;2.40;;;14.60;99.90;;;;;;4994478;28;20437;-74
2022/08/06 00:23:18;;;;;;;2.90;2.33;;;14.60;99.90;;;;;;4992745;28;20443;-73
2022/08/06 00:25:51;;;;;;;3.10;2.47;;;14.60;99.90;;;;;;4994238;28;20431;-74
2022/08/06 00:28:21;;;;;;;3.90;2.40;;;14.60;99.90;;;;;;4992543;28;20474;-74
2022/08/06 00:30:58;;;;;;;3.40;2.60;;;14.60;99.90;;;;;;4994296;28;20834;-73
2022/08/06 00:33:34;;;;;;;3.93;2.30;;;14.50;99.90;;;;;;4993743;28;20396;-73
2022/08/06 00:36:22;;;;;;;4.57;1.90;;;14.50;99.90;;;;;;4994062;28;20441;-73
2022/08/06 00:38:52;;;;;;;3.40;2.00;;;14.50;99.90;;;;;;4976274;28;20845;-73
2022/08/06 00:41:21;;;;;;;2.23;2.03;;;14.50;99.90;;;;;;4993919;28;20444;-73
2022/08/06 00:43:50;;;;;;;3.40;2.57;;;14.50;99.90;;;;;;4993993;28;20975;-74
2022/08/06 00:46:18;;;;;;;3.60;2.23;;;14.50;99.90;;;;;;4976256;28;20431;-73
2022/08/06 00:48:48;;;;;;;4.33;2.63;;;14.50;99.90;;;;;;4993581;28;20422;-74
2022/08/06 00:51:22;;;;;;;4.10;2.63;;;14.50;99.90;;;;;;4993860;28;20392;-73
2022/08/06 00:53:50;;;;;;;3.43;2.60;;;14.50;99.90;;;;;;4976063;28;20472;-74
2022/08/06 00:56:25;;;;;;;2.70;2.17;;;14.50;99.90;;;;;;4994040;28;20417;-73
2022/08/06 00:58:55;;;;;;;3.03;2.27;;;14.40;99.90;;;;;;4979587;28;20461;-73
2022/08/06 01:01:31;;;;;;;5.53;2.43;;;14.40;99.90;;;;;;4997505;28;20421;-73
2022/08/06 01:04:19;;;;;;;4.33;2.90;;;14.40;99.90;;;;;;4997344;28;20454;-74
2022/08/06 01:06:47;;;;;;;3.73;2.90;;;14.40;99.90;;;;;;4979691;28;20475;-73
2022/08/06 01:09:25;;;;;;;3.30;2.43;;;14.40;99.90;;;;;;4979791;28;20484;-74
2022/08/06 01:11:54;;;;;;;5.60;2.50;;;14.30;99.90;;;;;;4995851;28;20449;-74
2022/08/06 01:14:27;;;;;;;4.43;2.90;;;14.30;99.90;;;;;;4979538;28;20527;-73
2022/08/06 01:17:14;;;;;;;3.90;2.93;;;14.30;99.90;;;;;;4996949;28;20934;-73
2022/08/06 01:19:59;;;;;;;3.63;2.70;;;14.30;99.90;;;;;;4979494;28;20444;-73
2022/08/06 01:23:08;;;;;;;3.10;2.80;;;14.30;99.90;;;;;;4997043;28;20454;-73
2022/08/06 01:26:08;;;;;;;3.33;2.70;;;14.30;99.90;;;;;;4997276;28;20504;-74
2022/08/06 01:28:44;;;;;;;4.10;2.70;;;14.30;99.90;;;;;;4996817;28;20440;-73
2022/08/06 01:31:27;;;;;;;3.73;2.43;;;14.30;99.90;;;;;;4997007;28;20915;-74
2022/08/06 01:34:01;;;;;;;3.00;2.70;;;14.30;99.90;;;;;;4979139;28;21027;-74
2022/08/06 01:36:35;;;;;;;3.60;2.70;;;14.30;99.90;;;;;;4996680;28;20417;-73
2022/08/06 01:39:10;;;;;;;3.60;2.50;;;14.20;99.90;;;;;;4996724;28;20483;-73
2022/08/06 01:41:53;;;;;;;3.30;2.30;;;14.20;99.90;;;;;;4979953;28;20810;-74
2022/08/06 01:44:40;;;;;;;2.60;2.30;;;14.20;99.90;;;;;;4996337;28;20480;-73
2022/08/06 01:47:19;;;;;;;6.00;2.77;;;14.20;99.90;;;;;;4996476;28;20448;-73
2022/08/06 01:49:52;;;;;;;3.47;2.70;;;14.20;99.90;;;;;;4996607;28;20799;-74
2022/08/06 01:52:35;;;;;;;3.10;2.70;;;14.20;99.90;;;;;;4996735;28;20448;-74
2022/08/06 01:55:08;;;;;;;4.23;2.90;;;14.20;99.90;;;;;;4996440;28;20675;-74
2022/08/06 01:57:44;;;;;;;4.17;2.80;;;14.10;99.90;;;;;;4996510;28;20950;-74
2022/08/06 02:00:39;;;;;;;3.33;2.63;;;14.10;99.90;;;;;;4996770;28;20412;-74
2022/08/06 02:03:20;;;;;;;3.20;2.80;;;14.10;99.90;;;;;;4996442;28;20475;-74
2022/08/06 02:05:52;;;;;;;3.20;2.80;;;14.10;99.90;;;;;;4978646;28;20468;-74
2022/08/06 02:08:29;;;;;;;4.00;3.03;;;14.00;99.90;;;;;;4995422;28;20427;-74
2022/08/06 02:11:10;;;;;;;4.93;2.67;;;14.00;99.90;;;;;;4996268;28;20804;-74
2022/08/06 02:14:01;;;;;;;4.35;2.92;;;14.00;99.90;;;;;;4995886;28;20456;-74
2022/08/06 02:16:36;;;;;;;3.23;2.50;;;14.00;99.90;;;;;;4978654;28;20550;-74
2022/08/06 02:19:12;;;;;;;4.13;2.80;;;14.00;99.90;;;;;;4978355;28;20973;-74
2022/08/06 02:21:46;;;;;;;3.27;2.90;;;14.00;99.90;;;;;;4995852;28;20929;-74
2022/08/06 02:24:20;;;;;;;4.83;2.83;;;14.00;99.90;;;;;;4995744;28;20455;-74
2022/08/06 02:26:52;;;;;;;3.60;2.50;;;14.00;99.90;;;;;;4995747;28;20431;-74
2022/08/06 02:29:22;;;;;;;4.07;3.33;;;14.00;99.90;;;;;;4978209;28;20480;-74
2022/08/06 02:31:54;;;;;;;3.93;3.00;;;13.90;99.90;;;;;;4995889;28;20425;-74
2022/08/06 02:34:29;;;;;;;4.67;3.00;;;13.90;99.90;;;;;;4995535;28;20559;-74
2022/08/06 02:37:06;;;;;;;3.83;3.17;;;13.90;99.90;;;;;;4995737;28;20492;-74
2022/08/06 02:39:39;;;;;;;3.90;3.37;;;13.90;99.90;;;;;;4995711;28;20424;-74
2022/08/06 02:42:23;;;;;;;5.23;3.40;;;13.90;99.90;;;;;;4978106;28;20453;-74
2022/08/06 02:45:01;;;;;;;6.50;3.70;;;13.80;99.90;;;;;;4995380;28;20567;-74
2022/08/06 02:47:38;;;;;;;6.10;3.63;;;13.80;99.90;;;;;;4995592;28;20420;-74
2022/08/06 02:50:35;;;;;;;3.80;3.27;;;13.80;99.90;;;;;;4995615;28;20419;-74
2022/08/06 02:53:07;;;;;;;3.77;3.40;;;13.80;99.90;;;;;;4977823;28;20441;-74
2022/08/06 02:55:56;;;;;;;4.80;3.67;;;13.80;99.90;;;;;;4977681;28;20508;-74
2022/08/06 02:58:33;;;;;;;7.10;4.40;;;13.70;99.90;;;;;;4977688;28;20451;-74
2022/08/06 03:01:09;;;;;;;5.50;3.97;;;13.70;99.90;;;;;;4995757;28;20524;-74
2022/08/06 03:03:41;;;;;;;4.63;4.23;;;13.70;99.90;;;;;;4977611;28;20575;-74
2022/08/06 03:06:29;;;;;;;4.50;3.90;;;13.60;99.90;;;;;;4977663;28;20445;-74
2022/08/06 03:08:59;;;;;;;5.93;4.00;;;13.60;99.90;;;;;;4995878;28;20461;-74
2022/08/06 03:11:32;;;;;;;5.23;4.00;;;13.60;99.90;;;;;;5002204;28;20418;-74
2022/08/06 03:14:03;;;;;;;4.20;3.80;;;13.60;99.90;;;;;;4982454;28;20559;-74
2022/08/06 03:16:53;;;;;;;5.20;4.40;;;13.60;99.90;;;;;;4982425;28;20452;-74
2022/08/06 03:19:28;;;;;;;4.73;3.80;;;13.50;99.90;;;;;;4989087;28;20437;-74
2022/08/06 03:22:19;;;;;;;4.63;4.10;;;13.50;99.90;;;;;;4987111;28;20969;-74
2022/08/06 03:25:10;;;;;;;5.47;4.30;;;13.50;99.90;;;;;;5002413;28;20491;-74
2022/08/06 03:27:40;;;;;;;6.50;3.60;;;13.50;99.90;;;;;;5000163;28;20428;-74
2022/08/06 03:30:13;;;;;;;4.53;3.67;;;13.40;99.90;;;;;;4996327;28;20437;-74
2022/08/06 03:33:01;;;;;;;4.73;4.27;;;13.40;99.90;;;;;;4982461;28;20487;-74
2022/08/06 03:35:52;;;;;;;4.73;4.33;;;13.40;99.90;;;;;;4978665;28;20480;-74
2022/08/06 03:38:23;;;;;;;4.50;4.10;;;13.30;99.90;;;;;;4995015;28;20421;-74
2022/08/06 03:40:58;;;;;;;6.50;4.37;;;13.30;99.90;;;;;;4977429;28;20954;-74
2022/08/06 03:43:29;;;;;;;5.10;4.60;;;13.30;99.90;;;;;;4995134;28;20444;-74
2022/08/06 03:46:23;;;;;;;4.63;4.13;;;13.30;99.90;;;;;;4976981;28;20456;-74
2022/08/06 03:48:55;;;;;;;5.53;5.03;;;13.20;99.90;;;;;;4994356;28;20464;-74
2022/08/06 03:51:28;;;;;;;5.20;4.70;;;13.20;99.90;;;;;;4994627;28;20803;-74
2022/08/06 03:54:22;;;;;;;4.77;4.33;;;13.20;99.90;;;;;;4976988;28;20841;-75
2022/08/06 03:57:02;;;;;;;4.93;4.27;;;13.20;99.90;;;;;;4994204;28;20439;-74
2022/08/06 03:59:42;;;;;;;5.63;4.73;;;13.20;99.90;;;;;;4994755;28;20465;-74
2022/08/06 04:02:30;;;;;;;5.90;4.27;;;13.20;99.90;;;;;;4976716;28;20452;-74
2022/08/06 04:05:16;;;;;;;4.17;3.70;;;13.10;99.90;;;;;;4993991;28;20472;-74
2022/08/06 04:07:54;;;;;;;5.97;4.60;;;13.10;99.90;;;;;;4994081;28;20429;-74
2022/08/06 04:10:31;;;;;;;5.30;4.50;;;13.10;99.90;;;;;;4994329;28;20480;-74
2022/08/06 04:13:04;;;;;;;4.70;4.03;;;13.10;99.90;;;;;;4994522;28;20427;-74
2022/08/06 04:15:54;;;;;;;7.50;4.90;;;13.10;99.90;;;;;;4976759;28;20887;-74
2022/08/06 04:18:26;;;;;;;4.83;4.43;;;13.10;99.90;;;;;;4992842;28;20945;-74
2022/08/06 04:20:58;;;;;;;4.97;4.57;;;13.10;99.90;;;;;;4993828;28;20516;-74
2022/08/06 04:23:48;;;;;;;6.17;5.40;;;13.10;99.90;;;;;;4976379;28;20441;-74
2022/08/06 04:26:20;;;;;;;5.13;4.63;;;13.00;99.90;;;;;;4993800;28;20779;-74
2022/08/06 04:28:55;;;;;;;4.77;4.27;;;13.00;99.90;;;;;;4994110;28;20431;-75
2022/08/06 04:31:28;;;;;;;5.90;5.40;;;13.00;99.90;;;;;;4993929;28;20785;-74
2022/08/06 04:34:22;;;;;;;5.43;4.93;;;13.00;99.90;;;;;;4997988;28;20537;-74
2022/08/06 04:36:56;;;;;;;5.73;4.83;;;12.90;99.90;;;;;;4998144;28;20897;-74
2022/08/06 04:39:26;;;;;;;5.07;4.67;;;12.90;99.90;;;;;;4997997;28;20436;-74
2022/08/06 04:42:15;;;;;;;6.17;5.57;;;12.90;99.90;;;;;;4980310;28;20531;-74
2022/08/06 04:44:45;;;;;;;6.00;4.60;;;12.90;99.90;;;;;;4980236;28;20576;-74
2022/08/06 04:47:29;;;;;;;5.10;4.70;;;12.90;99.90;;;;;;4997891;28;20433;-75
2022/08/06 04:50:11;;;;;;;5.63;5.17;;;12.90;99.90;;;;;;4997777;28;20482;-75
2022/08/06 04:52:40;;;;;;;5.40;4.93;;;12.90;99.90;;;;;;4998001;28;20468;-74
2022/08/06 04:55:18;;;;;;;5.30;4.80;;;12.90;99.90;;;;;;4997211;28;20472;-75
2022/08/06 04:57:52;;;;;;;5.50;5.10;;;12.90;99.90;;;;;;4996228;28;20437;-74
2022/08/06 05:00:38;;;;;;;8.23;4.90;;;12.90;99.90;;;;;;4997356;28;20425;-74
2022/08/06 05:03:27;;;;;;;5.63;5.10;;;12.90;99.90;;;;;;4980228;28;20941;-75
2022/08/06 05:06:21;;;;;;;5.60;5.10;;;12.90;99.90;;;;;;4980117;28;20970;-74
2022/08/06 05:08:57;;;;;;;5.73;5.10;;;12.90;99.90;;;;;;4996227;28;20436;-75
2022/08/06 05:11:33;;;;;;;5.10;4.70;;;12.90;99.90;;;;;;4997835;28;20432;-75
2022/08/06 05:14:18;;;;;;;4.97;4.30;;;12.90;99.90;;;;;;4980366;28;20558;-75
2022/08/06 05:16:49;;;;;;;6.70;4.83;;;12.90;99.90;;;;;;4980097;28;20444;-75
2022/08/06 05:19:27;;;;;;;4.50;4.10;;;13.00;99.90;;;;;;4980131;28;20436;-75
2022/08/06 05:21:58;;;;;;;4.07;3.67;;;13.00;99.90;;;;;;4979664;28;20448;-75
2022/08/06 05:24:40;;;;;;;5.80;4.57;;;13.00;99.90;;;;;;4979292;28;20472;-75
2022/08/06 05:27:30;;;;;;;4.90;4.23;;;13.10;99.90;;;;;;4996936;28;20431;-75
2022/08/06 05:30:18;;;;;;;5.50;4.50;;;13.10;99.90;;;;;;4996807;28;20930;-74
2022/08/06 05:32:48;;;;;;;5.43;4.83;;;13.20;99.90;;;;;;4997097;28;20440;-75
2022/08/06 05:35:24;;;;;;;5.20;4.03;;;13.20;99.90;;;;;;4998689;28;20457;-74
2022/08/06 05:38:10;;;;;;;4.80;4.23;;;13.20;99.90;;;;;;4997350;28;20429;-74
2022/08/06 05:40:39;;;;;;;4.47;4.07;;;13.30;99.90;;;;;;4996844;28;20476;-74
2022/08/06 05:43:26;;;;;;;5.13;4.10;;;13.30;99.90;;;;;;4996877;28;20437;-74
2022/08/06 05:46:17;;;;;;;5.17;4.67;;;13.40;99.90;;;;;;4996896;28;20456;-74
2022/08/06 05:48:56;;;;;;;5.13;4.40;;;13.40;99.90;;;;;;4996758;28;20918;-74
2022/08/06 05:51:33;;;;;;;5.40;4.50;;;13.50;99.90;;;;;;4979084;28;20780;-74
2022/08/06 05:54:22;;;;;;;5.67;3.93;;;13.60;99.90;;;;;;4996325;28;20472;-74
2022/08/06 05:56:56;;;;;;;4.60;4.13;;;13.80;99.90;;;;;;4979049;28;20449;-74
2022/08/06 05:59:38;;;;;;;4.10;3.23;;;13.90;99.90;;;;;;4996407;28;20421;-74
2022/08/06 06:02:28;;;;;;;4.43;3.60;;;14.10;99.90;;;;;;4978911;28;20448;-74
2022/08/06 06:05:00;;;;;;;3.83;3.30;;;14.40;99.90;;;;;;4978658;28;20905;-74
2022/08/06 06:07:49;;;;;;;3.83;2.93;;;14.60;99.90;;;;;;4996483;28;20439;-74
2022/08/06 06:10:40;;;;;;;3.80;3.00;;;15.00;99.90;;;;;;4996659;28;20895;-74
2022/08/06 06:13:22;;;;;;;4.30;2.30;;;15.30;99.90;;;;;;4996188;28;20486;-74
2022/08/06 06:16:10;;;;;;;3.10;2.23;;;15.60;99.90;;;;;;4978695;28;20478;-75
2022/08/06 06:19:02;;;;;;;3.23;2.17;;;16.00;99.90;;;;;;4996309;28;20427;-74
2022/08/06 06:21:46;;;;;;;2.80;2.40;;;16.30;99.90;;;;;;4996123;28;20483;-74
2022/08/06 06:24:23;;;;;;;3.00;2.10;;;16.70;99.90;;;;;;4978281;28;20873;-74
2022/08/06 06:27:00;;;;;;;3.50;2.40;;;17.00;99.90;;;;;;4996000;28;20438;-74
2022/08/06 06:29:36;;;;;;;4.10;2.70;;;17.30;99.90;;;;;;4996090;28;20439;-74
2022/08/06 06:32:39;;;;;;;3.00;1.70;;;17.60;99.90;;;;;;4995852;28;20488;-74
2022/08/06 06:35:21;;;;;;;2.73;1.80;;;17.90;99.90;;;;;;4995778;28;20510;-74
2022/08/06 06:37:59;;;;;;;3.50;1.60;;;18.20;99.90;;;;;;4996047;28;20421;-75
2022/08/06 06:40:43;;;;;;;8.10;1.47;;;18.40;99.90;;;;;;4996009;28;20511;-75
2022/08/06 06:43:34;;;;;;;2.00;1.20;;;18.70;99.90;;;;;;4995871;28;20495;-75
2022/08/06 06:46:18;;;;;;;2.20;1.60;;;18.90;99.90;;;;;;4978234;28;20491;-75
2022/08/06 06:49:15;;;;;;;3.37;1.50;;;19.10;99.90;;;;;;4996035;28;20472;-75
2022/08/06 06:52:08;;;;;;;1.87;1.20;;;19.30;99.90;;;;;;4995647;28;20433;-76
2022/08/06 06:54:41;;;;;;;3.20;1.33;;;19.60;99.90;;;;;;4995203;28;20538;-75
2022/08/06 06:57:18;;;;;;;2.30;1.10;;;19.80;99.90;;;;;;4995614;28;20483;-76
2022/08/06 06:59:53;;;;;;;2.73;1.50;;;19.90;99.90;;;;;;4995763;28;20945;-76
2022/08/06 07:02:43;;;;;;;4.83;1.47;;;20.10;99.90;;;;;;4995290;28;20460;-75
2022/08/06 07:05:16;;;;;;;4.27;1.17;;;20.30;99.90;;;;;;4977633;28;20476;-76
2022/08/06 07:07:46;;;;;;;2.70;1.10;;;20.50;99.90;;;;;;4995006;28;20421;-76
2022/08/06 07:10:19;;;;;;;2.73;1.17;;;20.60;99.90;;;;;;4995475;28;20417;-76
2022/08/06 07:12:50;;;;;;;3.73;1.07;;;20.80;99.90;;;;;;4977695;28;20465;-76
2022/08/06 07:15:23;;;;;;;3.63;1.20;;;20.90;99.90;;;;;;4995526;28;20819;-77
2022/08/06 07:17:52;;;;;;;3.17;1.10;;;20.90;99.90;;;;;;4977627;28;20436;-75
2022/08/06 07:20:30;;;;;;;2.93;0.90;;;21.00;99.90;;;;;;4995231;28;20498;-76
2022/08/06 07:23:01;;;;;;;3.20;0.93;;;21.00;99.90;;;;;;4994905;28;20487;-76
2022/08/06 07:25:50;;;;;;;2.10;0.70;;;21.10;99.90;;;;;;4994974;28;20468;-75
2022/08/06 07:28:25;;;;;;;2.10;1.03;;;21.20;99.90;;;;;;4995221;28;20425;-77
2022/08/06 07:30:58;;;;;;;3.23;1.00;;;21.20;99.90;;;;;;4995026;28;20444;-76
2022/08/06 07:33:40;;;;;;;2.33;0.83;;;21.30;99.80;;;;;;4993607;28;20447;-76
2022/08/06 07:36:34;;;;;;;2.67;0.93;;;21.50;99.70;;;;;;4993560;28;20441;-76
2022/08/06 07:39:10;;;;;;;2.37;0.97;;;21.60;99.40;;;;;;4977363;28;20436;-77
2022/08/06 07:41:43;;;;;;;2.03;0.80;;;21.70;99.10;;;;;;4995117;28;20436;-76
2022/08/06 07:44:35;;;;;;;3.20;0.90;;;21.70;98.80;;;;;;4994494;28;20460;-77
2022/08/06 07:47:28;;;;;;;1.80;0.67;;;21.80;98.70;;;;;;4977170;28;20990;-75
2022/08/06 07:50:17;;;;;;;2.53;0.90;;;21.80;98.10;;;;;;4995087;28;20440;-76
2022/08/06 07:52:53;;;;;;;5.43;0.87;;;21.70;97.90;;;;;;4994956;28;20468;-75
2022/08/06 07:55:24;;;;;;;2.93;0.90;;;21.70;97.90;;;;;;4994245;28;20474;-77
2022/08/06 07:58:08;;;;;;;2.40;0.70;;;21.80;97.70;;;;;;4976994;28;20507;-76
2022/08/06 08:00:38;;;;;;;1.40;0.60;;;21.80;97.70;;;;;;4994361;28;20437;-76
2022/08/06 08:06:20;;;;;;;2.33;0.80;;;21.80;97.40;;;;;;4942489;28;20472;-76
2022/08/06 08:08:53;;;;;;;2.23;0.73;;;21.70;97.20;;;;;;4994324;28;20887;-77
2022/08/06 08:11:25;;;;;;;4.00;1.00;;;21.70;97.00;;;;;;4994824;28;20945;-78
2022/08/06 08:14:15;;;;;;;3.20;0.87;;;21.70;96.90;;;;;;4994821;28;20973;-77
2022/08/06 08:16:46;;;;;;;3.10;0.80;;;21.70;96.60;;;;;;4994710;28;20435;-76
2022/08/06 08:19:30;;;;;;;1.97;0.80;;;21.60;96.30;;;;;;4996798;28;20445;-77
2022/08/06 08:22:06;;;;;;;2.23;0.60;;;21.60;96.20;;;;;;5017051;28;20444;-76
2022/08/06 08:24:37;;;;;;;2.07;0.80;;;21.60;96.30;;;;;;5016680;28;20464;-76
2022/08/06 08:27:09;;;;;;;2.03;0.80;;;21.80;96.30;;;;;;5017754;28;20468;-76
2022/08/06 08:29:49;;;;;;;2.60;0.70;;;21.80;96.00;;;;;;5007809;28;20432;-76
2022/08/06 08:32:22;;;;;;;3.33;0.83;;;21.90;95.80;;;;;;5006564;28;20460;-76
2022/08/06 08:34:50;;;;;;;4.33;1.00;;;21.90;95.80;;;;;;4988529;28;20531;-77
2022/08/06 08:37:21;;;;;;;1.90;0.70;;;22.00;95.80;;;;;;4985332;28;20453;-76
2022/08/06 08:39:50;;;;;;;1.87;0.70;;;21.90;95.60;;;;;;4998861;28;20441;-76
2022/08/06 08:42:32;;;;;;;1.70;0.80;;;22.00;95.50;;;;;;4998673;28;20441;-76
2022/08/06 08:45:04;;;;;;;3.00;0.83;;;22.00;95.20;;;;;;4980756;28;20832;-75
2022/08/06 08:47:50;;;;;;;5.47;0.80;;;21.90;95.00;;;;;;4980627;28;20460;-76
2022/08/06 08:50:23;;;;;;;2.47;0.60;;;22.00;95.00;;;;;;4977504;28;20441;-76
2022/08/06 08:52:59;;;;;;;2.07;0.80;;;22.10;94.90;;;;;;4995034;28;20421;-76
2022/08/06 08:55:29;;;;;;;2.60;0.70;;;22.30;94.80;;;;;;4976963;28;20563;-76
2022/08/06 08:58:18;;;;;;;2.47;0.90;;;22.40;94.70;;;;;;4976511;28;20802;-76
2022/08/06 09:01:08;;;;;;;1.60;0.60;;;22.40;94.60;;;;;;4993932;28;20447;-77
2022/08/06 09:03:56;;;;;;;2.90;0.80;;;22.40;94.50;;;;;;4994103;28;20464;-76
2022/08/06 09:06:25;;;;;;;1.83;0.80;;;22.40;94.40;;;;;;4993577;28;20465;-76
2022/08/06 09:09:02;;;;;;;2.50;0.70;;;22.50;94.30;;;;;;4993928;28;20417;-77
2022/08/06 09:11:34;;;;;;;3.00;1.00;;;22.60;94.00;;;;;;4976265;28;20444;-76
2022/08/06 09:14:23;;;;;;;3.13;0.67;;;22.60;93.80;;;;;;4993839;28;20461;-77
2022/08/06 09:17:01;;;;;;;3.70;0.87;;;22.40;93.60;;;;;;4993727;28;20433;-75
2022/08/06 09:19:30;;;;;;;1.57;0.60;;;22.30;93.60;;;;;;4996311;28;20531;-76
2022/08/06 09:22:07;;;;;;;2.23;0.60;;;22.20;93.60;;;;;;4997152;28;20421;-76
2022/08/06 09:24:36;;;;;;;3.67;0.70;;;22.30;93.80;;;;;;4997073;28;20471;-76
2022/08/06 09:27:10;;;;;;;1.77;0.90;;;22.40;93.80;;;;;;4997306;28;20457;-76
2022/08/06 09:29:59;;;;;;;1.80;0.70;;;22.40;93.50;;;;;;4979783;28;20444;-76
2022/08/06 09:32:48;;;;;;;1.67;0.60;;;22.30;93.50;;;;;;4981077;28;20445;-75
2022/08/06 09:35:28;;;;;;;2.30;0.80;;;22.20;93.50;;;;;;4997208;28;20534;-76
2022/08/06 09:38:13;;;;;;;1.73;0.70;;;22.10;93.40;;;;;;4996982;28;20436;-75
2022/08/06 09:41:06;;;;;;;2.10;0.73;;;22.00;93.20;;;;;;4997111;28;20436;-75
2022/08/06 09:43:45;;;;;;;2.37;0.83;;;21.90;93.00;;;;;;4996927;28;20432;-75
2022/08/06 09:46:40;;;;;;;1.60;0.80;;;21.80;93.10;;;;;;4979149;28;20507;-75
2022/08/06 09:49:10;;;;;;;2.37;0.80;;;21.70;93.10;;;;;;4979253;28;20447;-75
2022/08/06 09:52:12;;;;;;;1.60;0.80;;;21.80;93.20;;;;;;4996571;28;20445;-75
2022/08/06 09:54:41;;;;;;;2.83;0.80;;;21.90;93.20;;;;;;4996495;28;20551;-75
2022/08/06 09:57:09;;;;;;;2.93;0.90;;;22.00;93.20;;;;;;4996576;28;20433;-75
2022/08/06 09:59:47;;;;;;;2.50;0.57;;;22.00;93.20;;;;;;4996333;28;20480;-75
2022/08/06 10:02:19;;;;;;;1.60;0.63;;;22.00;93.10;;;;;;4996732;28;20522;-75
2022/08/06 10:05:08;;;;;;;2.73;1.33;;;21.90;93.00;;;;;;4996221;28;20456;-75
2022/08/06 10:07:48;;;;;;;2.70;0.87;;;21.80;92.90;;;;;;4998945;28;20514;-75
2022/08/06 10:10:35;;;;;;;2.93;0.80;;;21.80;92.70;;;;;;4999525;28;20432;-75
2022/08/06 10:13:13;;;;;;;2.43;1.00;;;21.70;92.60;;;;;;4997717;28;20427;-75
2022/08/06 10:15:45;;;;;;;1.73;0.80;;;21.60;92.60;;;;;;4979341;28;20923;-75
2022/08/06 10:18:42;;;;;;;2.27;0.90;;;21.60;92.60;;;;;;4997022;28;20918;-75
2022/08/06 10:21:27;;;;;;;2.43;0.83;;;21.50;92.70;;;;;;4998066;28;20925;-75
2022/08/06 10:24:16;;;;;;;2.87;0.80;;;21.60;92.90;;;;;;4999168;28;20489;-76
2022/08/06 10:27:07;;;;;;;2.13;0.80;;;21.70;92.90;;;;;;4983210;28;20468;-75
2022/08/06 10:29:54;;;;;;;3.10;0.70;;;21.80;92.80;;;;;;4981419;28;20454;-75
2022/08/06 10:32:32;;;;;;;1.40;0.60;;;21.80;92.80;;;;;;4980017;28;20866;-74
2022/08/06 10:35:03;;;;;;;1.53;0.50;;;21.90;92.50;;;;;;4997410;28;20456;-75
2022/08/06 10:37:44;;;;;;;1.63;0.67;;;21.90;91.70;;;;;;4995631;28;20812;-75
2022/08/06 10:40:19;;;;;;;1.50;0.60;;;22.00;91.60;;;;;;4978092;28;20874;-74
2022/08/06 10:43:00;;;;;;;2.77;0.90;;;22.10;91.50;;;;;;4996057;28;20478;-75
2022/08/06 10:45:29;;;;;;;2.33;1.00;;;22.10;91.40;;;;;;4978015;28;20834;-75
2022/08/06 10:48:18;;;;;;;2.17;0.70;;;22.10;91.20;;;;;;4978038;28;20461;-75
2022/08/06 10:51:08;;;;;;;2.43;0.80;;;22.10;91.10;;;;;;4977854;28;20455;-75
2022/08/06 10:53:38;;;;;;;3.90;1.00;;;22.20;91.20;;;;;;4977979;28;20456;-75
2022/08/06 10:56:28;;;;;;;1.90;0.70;;;22.30;91.10;;;;;;4995258;28;20532;-75
2022/08/06 10:59:09;;;;;;;2.23;1.10;;;22.30;91.00;;;;;;4995499;28;20487;-75
2022/08/06 11:01:55;;;;;;;1.87;0.87;;;22.30;91.10;;;;;;4995560;28;20427;-74
2022/08/06 11:04:39;;;;;;;1.90;0.70;;;22.20;90.90;;;;;;4995412;28;20879;-76
2022/08/06 11:07:27;;;;;;;2.17;0.80;;;22.10;91.00;;;;;;4995216;28;20508;-76
2022/08/06 11:10:34;;;;;;;2.77;0.80;;;22.10;91.00;;;;;;4994928;28;20450;-76
2022/08/06 11:13:13;;;;;;;1.60;0.80;;;22.10;91.10;;;;;;4995243;28;20459;-77
2022/08/06 11:15:43;;;;;;;2.27;0.80;;;22.20;91.10;;;;;;4995009;28;20456;-76
2022/08/06 11:18:13;;;;;;;2.10;0.73;;;22.30;91.10;;;;;;4978151;28;20476;-77
2022/08/06 11:20:52;;;;;;;1.83;0.73;;;22.30;90.90;;;;;;4977508;28;20955;-77
2022/08/06 11:23:31;;;;;;;2.47;0.70;;;22.40;90.80;;;;;;4994910;28;20505;-77
2022/08/06 11:26:35;;;;;;;2.00;1.13;;;22.40;90.60;;;;;;4977621;28;20555;-77
2022/08/06 11:29:12;;;;;;;1.90;0.70;;;22.30;90.70;;;;;;4995483;28;20469;-76
2022/08/06 11:31:47;;;;;;;1.57;0.70;;;22.30;90.40;;;;;;4995231;28;20898;-77
2022/08/06 11:34:43;;;;;;;1.87;0.83;;;22.30;90.20;;;;;;4994949;28;20835;-77
2022/08/06 11:37:46;;;;;;;2.00;0.80;;;22.20;90.00;;;;;;4995153;28;20425;-76
2022/08/06 11:41:00;;;;;;;3.20;0.97;;;22.20;89.50;;;;;;4977379;28;20453;-76
2022/08/06 11:44:07;;;;;;;2.63;0.90;;;22.20;89.80;;;;;;4994414;28;20948;-77
2022/08/06 11:46:37;;;;;;;3.00;1.30;;;22.30;89.70;;;;;;4971204;28;20848;-76
2022/08/06 11:49:25;;;;;;;2.43;0.80;;;22.50;89.90;;;;;;4994630;28;20471;-76
2022/08/06 11:51:56;;;;;;;1.80;0.70;;;22.50;89.60;;;;;;4995018;28;20427;-77
2022/08/06 11:54:37;;;;;;;1.90;0.80;;;22.50;89.40;;;;;;4994462;28;20547;-76
2022/08/06 11:57:23;;;;;;;2.80;0.60;;;22.50;89.00;;;;;;4994566;28;20819;-76
2022/08/06 12:00:14;;;;;;;2.60;0.87;;;22.40;88.50;;;;;;4976848;28;20440;-76
2022/08/06 12:02:58;;;;;;;2.23;0.80;;;22.30;89.10;;;;;;4994492;28;20421;-76
2022/08/06 12:05:46;;;;;;;1.90;0.80;;;22.30;89.20;;;;;;4995611;28;20560;-77
2022/08/06 12:08:27;;;;;;;2.30;0.90;;;22.30;89.00;;;;;;4981294;28;20460;-76
2022/08/06 12:11:29;;;;;;;2.77;0.90;;;22.30;89.10;;;;;;4982436;28;20451;-76
2022/08/06 12:14:04;;;;;;;6.13;4.10;;;22.20;89.40;;;;;;4997623;28;20470;-77
2022/08/06 12:16:54;;;;;;;2.00;0.93;;;22.20;89.70;;;;;;5000412;28;20472;-76
2022/08/06 12:19:31;;;;;;;3.80;0.80;;;22.30;89.90;;;;;;4982625;28;20494;-76
2022/08/06 12:22:01;;;;;;;2.20;1.20;;;22.30;89.70;;;;;;4977817;28;20445;-77
2022/08/06 12:24:32;;;;;;;1.70;0.70;;;22.30;90.00;;;;;;4981437;28;20520;-76
2022/08/06 12:27:22;;;;;;;2.30;0.70;;;22.30;90.10;;;;;;4996297;28;20515;-76
2022/08/06 12:29:57;;;;;;;2.53;1.00;;;22.30;90.20;;;;;;4995249;28;20457;-77
2022/08/06 12:32:29;;;;;;;2.40;0.80;;;22.30;90.30;;;;;;4995360;28;20424;-78
2022/08/06 12:34:59;;;;;;;2.00;0.90;;;22.30;90.30;;;;;;4993917;28;20506;-76
2022/08/06 12:37:35;;;;;;;2.10;1.00;;;22.30;90.30;;;;;;4976658;28;20961;-77
2022/08/06 12:40:29;;;;;;;3.37;0.73;;;22.30;90.40;;;;;;4976511;28;20489;-76
2022/08/06 12:43:11;;;;;;;2.10;0.80;;;22.30;90.40;;;;;;4993792;28;20425;-76
2022/08/06 12:45:43;;;;;;;1.70;0.70;;;22.40;90.40;;;;;;4976245;28;20508;-76
2022/08/06 12:48:32;;;;;;;2.03;1.00;;;22.30;90.30;;;;;;4994110;28;20476;-78
2022/08/06 12:51:06;;;;;;;2.10;0.67;;;22.40;90.30;;;;;;4993951;28;20524;-77
2022/08/06 12:53:42;;;;;;;2.77;0.77;;;22.40;90.30;;;;;;4995714;28;20421;-76
2022/08/06 12:56:15;;;;;;;2.37;0.90;;;22.40;90.40;;;;;;4980223;28;20565;-76
2022/08/06 12:59:03;;;;;;;2.10;0.80;;;22.40;90.30;;;;;;4980067;28;20429;-76
2022/08/06 13:01:35;;;;;;;2.33;0.80;;;22.50;90.40;;;;;;4997539;28;20425;-76
2022/08/06 13:04:24;;;;;;;2.90;0.77;;;22.60;90.50;;;;;;4997420;28;20548;-76
2022/08/06 13:07:00;;;;;;;2.30;0.93;;;22.70;90.60;;;;;;4997400;28;20464;-76
2022/08/06 13:09:30;;;;;;;1.80;0.77;;;22.70;90.60;;;;;;4997690;28;20855;-76
2022/08/06 13:12:13;;;;;;;2.67;0.90;;;22.60;90.40;;;;;;4979891;28;20452;-76
2022/08/06 13:14:59;;;;;;;2.23;0.90;;;22.50;90.40;;;;;;4979704;28;20997;-77
2022/08/06 13:18:02;;;;;;;2.00;1.40;;;22.60;91.00;;;;;;4979751;28;20443;-76
2022/08/06 13:20:42;;;;;;;3.50;1.10;;;22.60;90.90;;;;;;4997309;28;20425;-76
2022/08/06 13:23:12;;;;;;;4.23;1.20;;;22.50;90.60;;;;;;4997118;28;20875;-76
2022/08/06 13:25:51;;;;;;;4.23;1.37;;;22.50;90.70;;;;;;4979458;28;20473;-76
2022/08/06 13:28:22;;;;;;;1.93;0.80;;;22.40;90.80;;;;;;4997076;28;20491;-76
2022/08/06 13:30:58;;;;;;;1.90;0.80;;;22.40;90.80;;;;;;4997429;28;20428;-76
2022/08/06 13:33:28;;;;;;;2.33;0.80;;;22.40;90.80;;;;;;4979480;28;20484;-77
2022/08/06 13:36:07;;;;;;;1.90;0.83;;;22.40;90.80;;;;;;4979605;28;20932;-76
2022/08/06 13:38:40;;;;;;;3.70;0.90;;;22.30;90.70;;;;;;4996820;28;20503;-76
2022/08/06 13:41:10;;;;;;;2.73;1.53;;;22.30;90.70;;;;;;4996758;28;20440;-76
2022/08/06 13:43:42;;;;;;;2.40;1.00;;;22.20;90.70;;;;;;4997314;28;20424;-76
2022/08/06 13:46:26;;;;;;;3.70;1.20;;;22.20;90.70;;;;;;4979238;28;20855;-76
2022/08/06 13:48:58;;;;;;;3.40;1.20;;;22.10;90.70;;;;;;4997167;28;20456;-76
2022/08/06 13:51:30;;;;;;;2.83;1.53;;;22.10;90.80;;;;;;4997065;28;20473;-76
2022/08/06 13:54:03;;;;;;;2.63;1.33;;;22.10;90.80;;;;;;4996756;28;20998;-76
2022/08/06 13:56:46;;;;;;;2.90;1.10;;;22.10;90.70;;;;;;4979403;28;20441;-78